Time;durP1;ratioP1;P1;durP2;ratioP2;P2;SDS_P1;SDS_P2;PMS_P1;PMS_P2;Temp;Humidity;BMP_temperature;BMP_pressure;BME280_temperature;BME280_humidity;BME280_pressure;Samples;Min_cycle;Max_cycle;Signal;HPM_P1;HPM_P2
2023/03/11 00:00:25;;;;;;;9.48;8.50;;;;;;;;;;5115415;28;20210;-67
2023/03/11 00:02:53;;;;;;;11.48;9.55;;;;;;;;;;5115251;28;20196;-66
2023/03/11 00:05:21;;;;;;;12.07;9.70;;;;;;;;;;5115188;28;20290;-67
2023/03/11 00:07:48;;;;;;;10.30;8.25;;;;;;;;;;5114999;28;20645;-66
2023/03/11 00:10:17;;;;;;;9.05;8.15;;;;;;;;;;5115259;28;20192;-66
2023/03/11 00:12:44;;;;;;;8.80;7.70;;;;;;;;;;5115050;28;20217;-66
2023/03/11 00:15:12;;;;;;;8.55;7.32;;;;;;;;;;5115047;28;20287;-66
2023/03/11 00:17:39;;;;;;;10.63;8.18;;;;;;;;;;5114847;28;20307;-66
2023/03/11 00:20:07;;;;;;;8.23;7.40;;;;;;;;;;5114924;28;20271;-65
2023/03/11 00:22:34;;;;;;;9.00;8.05;;;;;;;;;;5114736;28;20249;-66
2023/03/11 00:25:01;;;;;;;10.90;8.50;;;;;;;;;;5114890;28;20251;-66
2023/03/11 00:27:30;;;;;;;11.70;9.25;;;;;;;;;;5114906;28;20226;-65
2023/03/11 00:29:57;;;;;;;10.63;8.55;;;;;;;;;;5114826;28;20219;-66
2023/03/11 00:32:24;;;;;;;10.35;8.30;;;;;;;;;;5114577;28;20200;-67
2023/03/11 00:34:51;;;;;;;13.02;8.73;;;;;;;;;;5114530;28;20279;-66
2023/03/11 00:37:17;;;;;;;10.57;8.73;;;;;;;;;;5114482;28;20279;-67
2023/03/11 00:39:44;;;;;;;11.30;9.30;;;;;;;;;;5114876;28;20249;-67
2023/03/11 00:42:11;;;;;;;10.52;8.38;;;;;;;;;;5114623;28;20663;-66
2023/03/11 00:44:40;;;;;;;11.65;9.30;;;;;;;;;;5114534;28;20679;-66
2023/03/11 00:47:07;;;;;;;9.52;8.45;;;;;;;;;;5114380;28;20621;-66
2023/03/11 00:49:35;;;;;;;10.40;8.88;;;;;;;;;;5114083;28;20206;-66
2023/03/11 00:52:02;;;;;;;9.00;7.95;;;;;;;;;;5114424;28;20606;-66
2023/03/11 00:54:29;;;;;;;12.15;10.10;;;;;;;;;;5114404;28;20190;-66
2023/03/11 00:56:56;;;;;;;10.80;8.70;;;;;;;;;;5114287;28;20220;-65
2023/03/11 00:59:23;;;;;;;10.60;9.10;;;;;;;;;;5114162;28;20230;-65
2023/03/11 01:01:52;;;;;;;11.02;8.75;;;;;;;;;;5114132;28;20241;-66
2023/03/11 01:04:19;;;;;;;11.30;9.38;;;;;;;;;;5114151;28;20258;-66
2023/03/11 01:06:46;;;;;;;12.20;9.63;;;;;;;;;;5114167;28;20282;-66
2023/03/11 01:09:13;;;;;;;10.32;9.15;;;;;;;;;;5113918;28;20242;-66
2023/03/11 01:11:40;;;;;;;11.40;9.55;;;;;;;;;;5113936;28;20191;-66
2023/03/11 01:14:07;;;;;;;9.82;8.65;;;;;;;;;;5114029;28;20559;-66
2023/03/11 01:16:34;;;;;;;9.80;8.68;;;;;;;;;;5113792;28;20258;-67
2023/03/11 01:19:02;;;;;;;12.35;9.10;;;;;;;;;;5114069;28;20192;-65
2023/03/11 01:21:29;;;;;;;10.23;8.80;;;;;;;;;;5114025;28;20279;-66
2023/03/11 01:23:56;;;;;;;9.07;7.47;;;;;;;;;;5113807;28;20220;-66
2023/03/11 01:26:23;;;;;;;8.95;8.00;;;;;;;;;;5113789;28;20223;-67
2023/03/11 01:28:50;;;;;;;8.13;7.32;;;;;;;;;;5113787;28;20225;-67
2023/03/11 01:31:17;;;;;;;10.02;7.50;;;;;;;;;;5113600;28;20192;-66
2023/03/11 01:33:44;;;;;;;8.43;7.55;;;;;;;;;;5113716;28;20218;-66
2023/03/11 01:36:12;;;;;;;9.00;7.63;;;;;;;;;;5113734;28;20191;-66
2023/03/11 01:38:39;;;;;;;8.65;7.72;;;;;;;;;;5113647;28;20267;-66
2023/03/11 01:41:10;;;;;;;10.07;8.35;;;;;;;;;;5113696;28;20188;-68
2023/03/11 01:43:39;;;;;;;8.68;7.60;;;;;;;;;;5113333;28;20650;-66
2023/03/11 01:46:09;;;;;;;10.82;9.52;;;;;;;;;;5113630;28;20195;-66
2023/03/11 01:48:37;;;;;;;11.20;9.23;;;;;;;;;;5113563;28;20319;-67
2023/03/11 01:51:05;;;;;;;9.80;8.88;;;;;;;;;;5113316;28;20647;-66
2023/03/11 01:53:33;;;;;;;11.38;9.80;;;;;;;;;;5113396;28;20188;-67
2023/03/11 01:56:02;;;;;;;10.90;9.90;;;;;;;;;;5113339;28;20549;-67
2023/03/11 01:58:31;;;;;;;10.63;9.45;;;;;;;;;;5113270;28;20624;-67
2023/03/11 02:01:00;;;;;;;12.48;10.85;;;;;;;;;;5116482;27;20196;-67
2023/03/11 02:03:29;;;;;;;10.82;9.70;;;;;;;;;;5117620;28;20191;-66
2023/03/11 02:05:57;;;;;;;10.73;9.40;;;;;;;;;;5117598;28;20529;-67
2023/03/11 02:08:24;;;;;;;12.07;10.70;;;;;;;;;;5117436;28;20234;-66
2023/03/11 02:10:53;;;;;;;10.50;9.40;;;;;;;;;;5117409;28;20227;-66
2023/03/11 02:13:20;;;;;;;9.75;8.75;;;;;;;;;;5117554;27;20211;-67
2023/03/11 02:15:47;;;;;;;9.65;8.38;;;;;;;;;;5117495;28;20219;-66
2023/03/11 02:18:17;;;;;;;9.35;8.45;;;;;;;;;;5117159;28;20227;-66
2023/03/11 02:20:47;;;;;;;8.90;8.00;;;;;;;;;;5117152;28;20226;-66
2023/03/11 02:23:14;;;;;;;6.95;6.25;;;;;;;;;;5117329;28;20226;-66
2023/03/11 02:25:44;;;;;;;6.40;5.80;;;;;;;;;;5116989;28;20700;-66
2023/03/11 02:28:14;;;;;;;6.03;5.53;;;;;;;;;;5117068;28;20288;-66
2023/03/11 02:30:42;;;;;;;5.57;4.72;;;;;;;;;;5117193;28;20195;-66
2023/03/11 02:33:10;;;;;;;5.38;4.97;;;;;;;;;;5116909;28;20280;-66
2023/03/11 02:35:37;;;;;;;5.70;5.10;;;;;;;;;;5116968;27;20195;-66
2023/03/11 02:38:04;;;;;;;4.25;3.85;;;;;;;;;;5116893;28;20188;-66
2023/03/11 02:40:35;;;;;;;4.38;3.97;;;;;;;;;;5116961;28;20231;-66
2023/03/11 02:43:04;;;;;;;3.20;2.95;;;;;;;;;;5117025;28;20654;-66
2023/03/11 02:45:32;;;;;;;2.50;2.30;;;;;;;;;;5116738;27;20637;-66
2023/03/11 02:48:00;;;;;;;2.25;2.08;;;;;;;;;;5116726;28;20199;-66
2023/03/11 02:50:28;;;;;;;2.40;2.20;;;;;;;;;;5116591;28;20284;-66
2023/03/11 02:52:56;;;;;;;2.20;2.10;;;;;;;;;;5116737;28;20270;-64
2023/03/11 02:55:23;;;;;;;1.80;1.70;;;;;;;;;;5116739;28;20224;-66
2023/03/11 02:57:50;;;;;;;1.70;1.60;;;;;;;;;;5116889;28;20593;-66
2023/03/11 03:00:18;;;;;;;1.52;1.42;;;;;;;;;;5116536;28;20535;-65
2023/03/11 03:02:50;;;;;;;1.55;1.45;;;;;;;;;;5116406;28;20534;-65
2023/03/11 03:05:19;;;;;;;1.40;1.30;;;;;;;;;;5116247;28;20651;-65
2023/03/11 03:07:46;;;;;;;1.67;1.58;;;;;;;;;;5116485;28;20192;-66
2023/03/11 03:10:14;;;;;;;2.15;1.80;;;;;;;;;;5116512;28;20274;-65
2023/03/11 03:12:41;;;;;;;1.40;1.30;;;;;;;;;;5116221;28;20271;-65
2023/03/11 03:15:09;;;;;;;1.63;1.52;;;;;;;;;;5116165;28;20195;-65
2023/03/11 03:17:36;;;;;;;1.98;1.88;;;;;;;;;;5115927;28;20219;-66
2023/03/11 03:20:10;;;;;;;1.70;1.60;;;;;;;;;;5116275;28;20686;-67
2023/03/11 03:22:37;;;;;;;1.75;1.50;;;;;;;;;;5116199;28;20196;-65
2023/03/11 03:25:04;;;;;;;1.75;1.65;;;;;;;;;;5115939;28;20227;-65
2023/03/11 03:27:31;;;;;;;1.80;1.70;;;;;;;;;;5115964;28;20199;-66
2023/03/11 03:29:58;;;;;;;1.70;1.60;;;;;;;;;;5115894;28;20665;-65
2023/03/11 03:32:25;;;;;;;1.77;1.67;;;;;;;;;;5115791;28;20224;-66
2023/03/11 03:34:57;;;;;;;1.45;1.35;;;;;;;;;;5116032;28;20639;-66
2023/03/11 03:37:25;;;;;;;1.50;1.40;;;;;;;;;;5115917;28;20562;-65
2023/03/11 03:39:52;;;;;;;1.40;1.30;;;;;;;;;;5115801;28;20279;-66
2023/03/11 03:42:19;;;;;;;1.70;1.60;;;;;;;;;;5115688;28;20299;-66
2023/03/11 03:44:46;;;;;;;1.83;1.70;;;;;;;;;;5115523;28;20573;-66
2023/03/11 03:47:13;;;;;;;1.85;1.75;;;;;;;;;;5115829;27;20185;-65
2023/03/11 03:49:40;;;;;;;1.90;1.80;;;;;;;;;;5115572;28;20241;-66
2023/03/11 03:52:07;;;;;;;2.10;1.90;;;;;;;;;;5115551;28;20187;-67
2023/03/11 03:54:35;;;;;;;1.90;1.80;;;;;;;;;;5115498;28;20196;-66
2023/03/11 03:57:02;;;;;;;2.13;1.92;;;;;;;;;;5115453;28;20285;-65
2023/03/11 03:59:29;;;;;;;1.80;1.70;;;;;;;;;;5115586;28;20281;-66
2023/03/11 04:01:57;;;;;;;1.70;1.60;;;;;;;;;;5115483;28;20220;-65
2023/03/11 04:04:24;;;;;;;1.85;1.75;;;;;;;;;;5115111;28;20189;-65
2023/03/11 04:06:51;;;;;;;2.00;1.90;;;;;;;;;;5115363;28;20246;-66
2023/03/11 04:09:19;;;;;;;2.15;2.00;;;;;;;;;;5115152;28;20237;-66
2023/03/11 04:11:47;;;;;;;2.20;2.10;;;;;;;;;;5114990;28;20708;-65
2023/03/11 04:14:14;;;;;;;2.42;2.25;;;;;;;;;;5115166;28;20192;-66
2023/03/11 04:16:41;;;;;;;2.47;2.30;;;;;;;;;;5114908;28;20282;-66
2023/03/11 04:19:08;;;;;;;2.55;2.30;;;;;;;;;;5115110;28;20605;-65
2023/03/11 04:21:35;;;;;;;2.58;2.38;;;;;;;;;;5114950;28;20195;-66
2023/03/11 04:24:02;;;;;;;2.03;1.92;;;;;;;;;;5114337;28;20195;-66
2023/03/11 04:26:29;;;;;;;2.80;2.55;;;;;;;;;;5114603;28;20270;-65
2023/03/11 04:28:58;;;;;;;2.58;2.38;;;;;;;;;;5114953;28;20222;-66
2023/03/11 04:31:25;;;;;;;2.53;2.33;;;;;;;;;;5114689;28;20226;-66
2023/03/11 04:33:53;;;;;;;2.55;2.45;;;;;;;;;;5114798;28;20195;-66
2023/03/11 04:36:20;;;;;;;2.60;2.40;;;;;;;;;;5114654;28;20197;-66
2023/03/11 04:38:47;;;;;;;3.33;3.00;;;;;;;;;;5114452;28;20255;-66
2023/03/11 04:41:14;;;;;;;2.90;2.70;;;;;;;;;;5114629;28;20192;-66
2023/03/11 04:43:41;;;;;;;3.50;3.20;;;;;;;;;;5114421;28;20191;-65
2023/03/11 04:46:09;;;;;;;3.60;3.30;;;;;;;;;;5114442;27;20220;-66
2023/03/11 04:48:36;;;;;;;3.15;2.95;;;;;;;;;;5114744;28;20192;-65
2023/03/11 04:51:04;;;;;;;3.78;3.13;;;;;;;;;;5114206;28;20193;-65
2023/03/11 04:53:31;;;;;;;3.75;3.45;;;;;;;;;;5114136;28;20191;-65
2023/03/11 04:55:58;;;;;;;3.55;3.25;;;;;;;;;;5114650;28;20245;-66
2023/03/11 04:58:25;;;;;;;3.22;2.95;;;;;;;;;;5114440;27;20184;-65
2023/03/11 05:00:52;;;;;;;3.80;3.28;;;;;;;;;;5114271;28;20192;-65
2023/03/11 05:03:21;;;;;;;2.97;2.78;;;;;;;;;;5114108;28;20241;-65
2023/03/11 05:05:48;;;;;;;2.75;2.55;;;;;;;;;;5113864;28;20594;-66
2023/03/11 05:08:15;;;;;;;3.35;3.05;;;;;;;;;;5114190;28;20195;-66
2023/03/11 05:10:43;;;;;;;3.47;3.17;;;;;;;;;;5114163;28;20598;-65
2023/03/11 05:13:10;;;;;;;3.03;2.83;;;;;;;;;;5113830;28;20709;-65
2023/03/11 05:15:37;;;;;;;2.50;2.38;;;;;;;;;;5113926;28;20194;-64
2023/03/11 05:18:05;;;;;;;2.92;2.70;;;;;;;;;;5113569;28;20231;-64
2023/03/11 05:20:33;;;;;;;2.80;2.60;;;;;;;;;;5113792;28;20589;-64
2023/03/11 05:23:00;;;;;;;3.30;2.20;;;;;;;;;;5113939;28;20603;-64
2023/03/11 05:25:27;;;;;;;2.50;2.30;;;;;;;;;;5113638;28;20215;-64
2023/03/11 05:27:54;;;;;;;2.85;2.65;;;;;;;;;;5114072;28;20199;-64
2023/03/11 05:30:21;;;;;;;2.88;2.67;;;;;;;;;;5113780;28;20198;-64
2023/03/11 05:32:49;;;;;;;2.30;2.20;;;;;;;;;;5113705;28;20651;-64
2023/03/11 05:35:16;;;;;;;3.55;2.88;;;;;;;;;;5112931;28;20245;-64
2023/03/11 05:37:48;;;;;;;2.55;2.40;;;;;;;;;;5113543;28;20703;-64
2023/03/11 05:40:15;;;;;;;2.03;1.83;;;;;;;;;;5113788;28;20279;-64
2023/03/11 05:42:42;;;;;;;2.80;2.60;;;;;;;;;;5113434;28;20639;-64
2023/03/11 05:45:10;;;;;;;2.85;2.65;;;;;;;;;;5113576;28;20212;-64
2023/03/11 05:47:37;;;;;;;3.85;2.15;;;;;;;;;;5113446;28;20611;-64
2023/03/11 05:50:05;;;;;;;2.60;2.40;;;;;;;;;;5113632;28;20536;-64
2023/03/11 05:52:32;;;;;;;3.10;2.80;;;;;;;;;;5113661;28;20269;-64
2023/03/11 05:55:01;;;;;;;2.90;2.70;;;;;;;;;;5113606;28;20191;-65
2023/03/11 05:57:28;;;;;;;2.90;2.70;;;;;;;;;;5113314;28;20191;-64
2023/03/11 05:59:55;;;;;;;3.33;3.08;;;;;;;;;;5113273;28;20195;-64
2023/03/11 06:02:23;;;;;;;3.88;3.15;;;;;;;;;;5113615;28;20214;-64
2023/03/11 06:04:50;;;;;;;2.65;2.45;;;;;;;;;;5113377;28;20237;-64
2023/03/11 06:07:17;;;;;;;2.75;2.55;;;;;;;;;;5113359;28;20231;-64
2023/03/11 06:09:44;;;;;;;3.00;2.80;;;;;;;;;;5113459;28;20543;-64
2023/03/11 06:12:13;;;;;;;2.55;2.35;;;;;;;;;;5113413;28;20199;-64
2023/03/11 06:14:40;;;;;;;2.22;2.03;;;;;;;;;;5113144;28;20203;-64
2023/03/11 06:17:07;;;;;;;3.70;3.05;;;;;;;;;;5113211;28;20228;-65
2023/03/11 06:19:34;;;;;;;3.15;2.95;;;;;;;;;;5113154;28;20665;-64
2023/03/11 06:22:01;;;;;;;2.65;2.45;;;;;;;;;;5113310;28;20647;-64
2023/03/11 06:24:28;;;;;;;3.17;2.92;;;;;;;;;;5113000;28;20192;-64
2023/03/11 06:26:55;;;;;;;3.35;2.60;;;;;;;;;;5113079;28;20238;-64
2023/03/11 06:29:25;;;;;;;3.00;2.63;;;;;;;;;;5113466;28;20225;-64
2023/03/11 06:31:52;;;;;;;2.75;2.53;;;;;;;;;;5113350;28;20204;-65
2023/03/11 06:34:19;;;;;;;3.25;2.83;;;;;;;;;;5113074;28;20187;-64
2023/03/11 06:36:46;;;;;;;3.40;3.00;;;;;;;;;;5113263;28;20202;-65
2023/03/11 06:39:14;;;;;;;2.75;2.55;;;;;;;;;;5113128;28;20198;-64
2023/03/11 06:41:41;;;;;;;2.97;2.78;;;;;;;;;;5113201;28;20191;-64
2023/03/11 06:44:09;;;;;;;2.85;2.65;;;;;;;;;;5113006;28;20704;-64
2023/03/11 06:46:38;;;;;;;3.80;3.25;;;;;;;;;;5114895;28;20713;-64
2023/03/11 06:49:05;;;;;;;2.90;2.70;;;;;;;;;;5117000;28;20279;-64
2023/03/11 06:51:32;;;;;;;2.55;2.40;;;;;;;;;;5116678;28;20218;-64
2023/03/11 06:53:59;;;;;;;3.00;2.70;;;;;;;;;;5117028;28;20201;-65
2023/03/11 06:56:26;;;;;;;2.85;2.65;;;;;;;;;;5116721;28;20192;-65
2023/03/11 06:58:54;;;;;;;2.00;1.90;;;;;;;;;;5116914;28;20193;-64
2023/03/11 07:01:22;;;;;;;2.50;2.10;;;;;;;;;;5116689;28;20191;-64
2023/03/11 07:03:51;;;;;;;2.40;2.20;;;;;;;;;;5116641;28;20234;-64
2023/03/11 07:06:19;;;;;;;2.33;2.03;;;;;;;;;;5116481;28;20223;-64
2023/03/11 07:08:46;;;;;;;1.85;1.75;;;;;;;;;;5116572;27;20192;-64
2023/03/11 07:11:15;;;;;;;2.40;2.20;;;;;;;;;;5116584;28;20238;-64
2023/03/11 07:13:42;;;;;;;2.50;2.30;;;;;;;;;;5116721;28;20232;-64
2023/03/11 07:16:11;;;;;;;2.80;2.60;;;;;;;;;;5116385;28;20198;-64
2023/03/11 07:18:39;;;;;;;3.08;2.88;;;;;;;;;;5116171;28;20228;-64
2023/03/11 07:21:08;;;;;;;4.00;3.70;;;;;;;;;;5116132;28;20188;-64
2023/03/11 07:23:36;;;;;;;3.75;3.20;;;;;;;;;;5116355;28;20192;-64
2023/03/11 07:26:03;;;;;;;14.35;12.80;;;;;;;;;;5116265;28;20302;-64
2023/03/11 07:28:31;;;;;;;4.82;4.32;;;;;;;;;;5116146;28;20659;-64
2023/03/11 07:30:58;;;;;;;4.22;3.83;;;;;;;;;;5116060;28;20200;-64
2023/03/11 07:33:25;;;;;;;6.10;4.18;;;;;;;;;;5116087;28;20215;-64
2023/03/11 07:35:52;;;;;;;4.20;3.90;;;;;;;;;;5115849;28;20629;-64
2023/03/11 07:38:21;;;;;;;5.03;4.63;;;;;;;;;;5115980;28;20194;-64
2023/03/11 07:40:48;;;;;;;3.97;3.65;;;;;;;;;;5115946;28;20199;-64
2023/03/11 07:43:15;;;;;;;3.70;3.40;;;;;;;;;;5115791;28;20198;-64
2023/03/11 07:45:42;;;;;;;4.10;3.70;;;;;;;;;;5115852;28;20265;-64
2023/03/11 07:48:09;;;;;;;4.72;4.32;;;;;;;;;;5115607;28;20275;-65
2023/03/11 07:50:36;;;;;;;3.70;3.30;;;;;;;;;;5115541;28;20196;-64
2023/03/11 07:53:03;;;;;;;4.40;4.00;;;;;;;;;;5115966;28;20192;-64
2023/03/11 07:55:31;;;;;;;3.65;3.40;;;;;;;;;;5115977;28;20195;-64
2023/03/11 07:57:59;;;;;;;4.57;4.18;;;;;;;;;;5114627;28;20655;-64
2023/03/11 08:00:26;;;;;;;5.57;3.65;;;;;;;;;;5115377;28;20195;-65
2023/03/11 08:02:53;;;;;;;4.38;4.07;;;;;;;;;;5115379;28;20199;-64
2023/03/11 08:05:20;;;;;;;4.88;4.38;;;;;;;;;;5115647;28;20188;-64
2023/03/11 08:07:47;;;;;;;4.28;3.95;;;;;;;;;;5115327;28;20223;-65
2023/03/11 08:10:14;;;;;;;3.47;3.17;;;;;;;;;;5115425;28;20592;-64
2023/03/11 08:12:42;;;;;;;4.55;4.20;;;;;;;;;;5115244;28;20192;-64
2023/03/11 08:15:10;;;;;;;4.45;4.05;;;;;;;;;;5115072;28;20188;-64
2023/03/11 08:17:37;;;;;;;6.47;4.43;;;;;;;;;;5114829;28;20746;-65
2023/03/11 08:20:07;;;;;;;5.28;4.75;;;;;;;;;;5115231;28;20286;-65
2023/03/11 08:22:34;;;;;;;3.47;3.17;;;;;;;;;;5115164;28;20204;-64
2023/03/11 08:25:01;;;;;;;4.40;4.00;;;;;;;;;;5115078;28;20224;-65
2023/03/11 08:27:28;;;;;;;4.20;3.80;;;;;;;;;;5114781;28;20219;-64
2023/03/11 08:29:57;;;;;;;4.93;4.45;;;;;;;;;;5114798;28;20189;-65
2023/03/11 08:32:23;;;;;;;5.18;4.40;;;;;;;;;;5114841;28;20188;-64
2023/03/11 08:34:50;;;;;;;5.25;4.00;;;;;;;;;;5114891;28;20214;-65
2023/03/11 08:37:17;;;;;;;5.55;3.80;;;;;;;;;;5114570;28;20198;-64
2023/03/11 08:39:44;;;;;;;5.60;3.85;;;;;;;;;;5114705;28;20283;-64
2023/03/11 08:42:11;;;;;;;5.32;4.13;;;;;;;;;;5114568;28;20249;-65
2023/03/11 08:44:39;;;;;;;3.70;3.42;;;;;;;;;;5114452;28;20192;-65
2023/03/11 08:47:07;;;;;;;5.95;4.28;;;;;;;;;;5114457;28;20701;-65
2023/03/11 08:49:35;;;;;;;5.40;3.97;;;;;;;;;;5114557;27;20234;-65
2023/03/11 08:52:02;;;;;;;3.95;3.65;;;;;;;;;;5114445;28;20289;-65
2023/03/11 08:54:29;;;;;;;4.60;4.30;;;;;;;;;;5114245;28;20191;-64
2023/03/11 08:56:57;;;;;;;5.40;4.05;;;;;;;;;;5114266;28;20190;-65
2023/03/11 08:59:24;;;;;;;4.32;3.72;;;;;;;;;;5114445;28;20206;-64
2023/03/11 09:01:51;;;;;;;4.13;3.83;;;;;;;;;;5114451;28;20188;-65
2023/03/11 09:04:19;;;;;;;4.40;4.03;;;;;;;;;;5114154;28;20192;-64
2023/03/11 09:06:47;;;;;;;5.50;3.80;;;;;;;;;;5114084;28;20519;-65
2023/03/11 09:09:16;;;;;;;3.90;3.60;;;;;;;;;;5114045;28;20446;-65
2023/03/11 09:11:44;;;;;;;4.13;3.72;;;;;;;;;;5114099;28;20287;-65
2023/03/11 09:14:11;;;;;;;5.57;3.85;;;;;;;;;;5114230;28;20199;-65
2023/03/11 09:16:38;;;;;;;4.20;3.90;;;;;;;;;;5113921;28;20245;-65
2023/03/11 09:19:06;;;;;;;6.03;3.97;;;;;;;;;;5114051;28;20184;-65
2023/03/11 09:21:35;;;;;;;3.97;3.67;;;;;;;;;;5113928;28;20188;-65
2023/03/11 09:24:03;;;;;;;5.55;4.00;;;;;;;;;;5113872;28;20188;-65
2023/03/11 09:26:30;;;;;;;5.60;3.97;;;;;;;;;;5113490;28;20216;-64
2023/03/11 09:28:57;;;;;;;4.20;3.38;;;;;;;;;;5113981;28;20196;-65
2023/03/11 09:31:24;;;;;;;4.57;4.18;;;;;;;;;;5113979;28;20316;-64
2023/03/11 09:33:54;;;;;;;5.28;3.92;;;;;;;;;;5113814;28;20660;-65
2023/03/11 09:36:22;;;;;;;3.50;3.20;;;;;;;;;;5113569;28;20192;-63
2023/03/11 09:38:50;;;;;;;4.28;3.95;;;;;;;;;;5113580;28;20226;-64
2023/03/11 09:41:26;;;;;;;4.45;3.40;;;;;;;;;;5113503;28;20188;-64
2023/03/11 09:43:58;;;;;;;5.40;3.60;;;;;;;;;;5113630;28;20196;-66
2023/03/11 09:46:39;;;;;;;3.90;3.70;;;;;;;;;;5113663;28;20208;-66
2023/03/11 09:49:10;;;;;;;4.70;3.55;;;;;;;;;;5113485;28;20194;-66
2023/03/11 09:51:40;;;;;;;5.63;3.80;;;;;;;;;;5113306;28;20191;-66
2023/03/11 09:54:11;;;;;;;4.05;3.60;;;;;;;;;;5113714;28;20192;-63
2023/03/11 09:56:39;;;;;;;4.20;3.80;;;;;;;;;;5113391;28;20196;-63
2023/03/11 09:59:08;;;;;;;4.65;3.67;;;;;;;;;;5113722;28;20188;-64
2023/03/11 10:01:37;;;;;;;4.22;3.65;;;;;;;;;;5113292;28;20284;-64
2023/03/11 10:04:07;;;;;;;4.78;3.13;;;;;;;;;;5113335;28;20192;-64
2023/03/11 10:06:34;;;;;;;5.50;3.70;;;;;;;;;;5113491;28;20212;-65
2023/03/11 10:09:06;;;;;;;5.30;3.70;;;;;;;;;;5113518;28;20195;-65
2023/03/11 10:11:45;;;;;;;8.13;4.40;;;;;;;;;;5113222;28;20192;-64
2023/03/11 10:14:29;;;;;;;4.53;4.13;;;;;;;;;;5113482;28;20185;-64
2023/03/11 10:16:59;;;;;;;4.68;4.00;;;;;;;;;;5113128;28;20273;-64
2023/03/11 10:19:33;;;;;;;4.50;4.20;;;;;;;;;;5113112;28;20188;-64
2023/03/11 10:22:06;;;;;;;4.03;3.73;;;;;;;;;;5116056;28;20192;-65
2023/03/11 10:24:39;;;;;;;4.90;4.43;;;;;;;;;;5117201;28;20801;-64
2023/03/11 10:27:11;;;;;;;4.20;3.90;;;;;;;;;;5117004;28;20216;-65
2023/03/11 10:29:43;;;;;;;3.78;3.47;;;;;;;;;;5117487;28;20188;-64
2023/03/11 10:32:14;;;;;;;4.63;3.90;;;;;;;;;;5117158;28;20193;-65
2023/03/11 10:34:43;;;;;;;3.63;3.40;;;;;;;;;;5117143;27;20453;-66
2023/03/11 10:37:12;;;;;;;6.60;4.65;;;;;;;;;;5117047;28;20214;-65
2023/03/11 10:39:40;;;;;;;3.70;3.40;;;;;;;;;;5117022;28;20192;-64
2023/03/11 10:42:12;;;;;;;3.40;3.10;;;;;;;;;;5116862;28;20196;-64
2023/03/11 10:44:40;;;;;;;3.95;3.65;;;;;;;;;;5116930;28;20458;-64
2023/03/11 10:47:13;;;;;;;5.25;3.53;;;;;;;;;;5116717;28;20697;-64
2023/03/11 10:49:40;;;;;;;4.60;4.20;;;;;;;;;;5116623;28;20639;-64
2023/03/11 10:52:07;;;;;;;3.97;3.70;;;;;;;;;;5116854;28;20559;-64
2023/03/11 10:54:36;;;;;;;3.03;2.80;;;;;;;;;;5116616;28;20228;-64
2023/03/11 10:57:04;;;;;;;3.35;3.15;;;;;;;;;;5116688;27;20188;-64
2023/03/11 10:59:34;;;;;;;4.85;3.50;;;;;;;;;;5116521;28;20193;-64
2023/03/11 11:02:02;;;;;;;4.15;3.80;;;;;;;;;;5116349;28;20282;-64
2023/03/11 11:04:31;;;;;;;4.30;4.00;;;;;;;;;;5116526;28;20188;-64
2023/03/11 11:06:59;;;;;;;4.70;4.30;;;;;;;;;;5116494;28;20208;-64
2023/03/11 11:09:29;;;;;;;4.65;4.25;;;;;;;;;;5116498;28;20283;-64
2023/03/11 11:12:04;;;;;;;4.70;4.20;;;;;;;;;;5116404;28;20184;-64
2023/03/11 11:14:46;;;;;;;5.10;4.70;;;;;;;;;;5116205;28;20502;-64
2023/03/11 11:17:17;;;;;;;4.65;4.35;;;;;;;;;;5115782;28;21003;-64
2023/03/11 11:19:45;;;;;;;4.15;3.85;;;;;;;;;;5116164;28;20184;-64
2023/03/11 11:22:16;;;;;;;4.65;4.22;;;;;;;;;;5116265;28;20279;-64
2023/03/11 11:24:44;;;;;;;6.03;4.97;;;;;;;;;;5116175;28;20200;-64
2023/03/11 11:27:16;;;;;;;5.82;5.32;;;;;;;;;;5115914;28;20215;-64
2023/03/11 11:29:43;;;;;;;5.75;4.43;;;;;;;;;;5116169;28;20304;-64
2023/03/11 11:32:17;;;;;;;5.47;4.93;;;;;;;;;;5114899;28;20194;-64
2023/03/11 11:34:53;;;;;;;5.10;4.70;;;;;;;;;;5115846;28;20449;-64
2023/03/11 11:37:21;;;;;;;4.22;3.92;;;;;;;;;;5115914;27;20196;-64
2023/03/11 11:39:51;;;;;;;5.00;4.63;;;;;;;;;;5115666;28;20249;-64
2023/03/11 11:42:19;;;;;;;5.00;4.53;;;;;;;;;;5115760;28;20200;-64
2023/03/11 11:44:48;;;;;;;4.57;4.15;;;;;;;;;;5115701;28;20188;-63
2023/03/11 11:47:19;;;;;;;5.30;4.80;;;;;;;;;;5115621;28;20235;-63
2023/03/11 11:49:50;;;;;;;5.20;4.70;;;;;;;;;;5115653;28;20585;-64
2023/03/11 11:52:20;;;;;;;4.93;4.53;;;;;;;;;;5115461;28;20620;-64
2023/03/11 11:54:51;;;;;;;4.90;4.55;;;;;;;;;;5115348;28;20657;-64
2023/03/11 11:57:20;;;;;;;5.97;5.30;;;;;;;;;;5115586;28;20201;-64
2023/03/11 11:59:47;;;;;;;5.43;4.93;;;;;;;;;;5115491;28;20188;-64
2023/03/11 12:02:26;;;;;;;5.82;5.30;;;;;;;;;;5115436;28;20211;-64
2023/03/11 12:04:55;;;;;;;5.40;5.00;;;;;;;;;;5115444;28;20282;-64
2023/03/11 12:07:33;;;;;;;5.70;5.20;;;;;;;;;;5115118;28;20631;-64
2023/03/11 12:10:03;;;;;;;7.05;6.35;;;;;;;;;;5115254;28;20198;-65
2023/03/11 12:12:33;;;;;;;6.43;5.93;;;;;;;;;;5115202;28;20192;-64
2023/03/11 12:15:06;;;;;;;5.95;5.35;;;;;;;;;;5115129;28;20193;-65
2023/03/11 12:17:36;;;;;;;7.05;6.38;;;;;;;;;;5115073;28;20661;-64
2023/03/11 12:20:07;;;;;;;6.20;5.70;;;;;;;;;;5115209;28;20199;-64
2023/03/11 12:22:55;;;;;;;7.80;6.72;;;;;;;;;;5115063;28;20442;-64
2023/03/11 12:25:26;;;;;;;7.28;6.30;;;;;;;;;;5110620;28;20245;-64
2023/03/11 12:27:57;;;;;;;6.70;6.03;;;;;;;;;;5114957;28;20215;-64
2023/03/11 12:30:27;;;;;;;6.38;5.82;;;;;;;;;;5115194;28;20192;-64
2023/03/11 12:32:57;;;;;;;6.03;5.50;;;;;;;;;;5114871;28;20555;-64
2023/03/11 12:35:26;;;;;;;7.60;6.78;;;;;;;;;;5114834;28;20184;-65
2023/03/11 12:37:57;;;;;;;7.07;6.37;;;;;;;;;;5114761;28;20185;-65
2023/03/11 12:40:55;;;;;;;7.15;6.45;;;;;;;;;;5114951;28;20446;-65
2023/03/11 12:43:28;;;;;;;7.30;6.60;;;;;;;;;;5051299;28;20293;-64
2023/03/11 12:45:58;;;;;;;5.87;5.37;;;;;;;;;;5102699;28;20188;-65
2023/03/11 12:48:32;;;;;;;6.95;6.35;;;;;;;;;;5114381;28;20563;-65
2023/03/11 12:50:59;;;;;;;7.18;6.35;;;;;;;;;;5114691;28;20200;-65
2023/03/11 12:53:42;;;;;;;6.28;5.45;;;;;;;;;;5114244;28;20275;-65
2023/03/11 12:56:14;;;;;;;4.72;4.40;;;;;;;;;;5114405;28;20238;-65
2023/03/11 12:58:51;;;;;;;5.90;5.40;;;;;;;;;;5114323;28;20279;-65
2023/03/11 13:01:26;;;;;;;6.47;5.63;;;;;;;;;;5114232;28;20221;-65
2023/03/11 13:04:08;;;;;;;6.40;5.90;;;;;;;;;;5114142;28;20188;-65
2023/03/11 13:06:47;;;;;;;8.63;6.57;;;;;;;;;;5101333;28;20202;-65
2023/03/11 13:09:15;;;;;;;6.22;5.72;;;;;;;;;;5114046;28;20223;-65
2023/03/11 13:11:44;;;;;;;7.35;6.70;;;;;;;;;;5114297;28;20291;-66
2023/03/11 13:14:18;;;;;;;8.07;6.65;;;;;;;;;;5114218;27;20199;-65
2023/03/11 13:16:46;;;;;;;7.28;6.55;;;;;;;;;;5114041;28;20542;-65
2023/03/11 13:19:31;;;;;;;7.55;6.75;;;;;;;;;;5113899;28;20200;-65
2023/03/11 13:22:00;;;;;;;7.35;6.75;;;;;;;;;;5114013;28;20223;-65
2023/03/11 13:24:49;;;;;;;7.60;6.32;;;;;;;;;;5114238;28;20200;-65
2023/03/11 13:27:22;;;;;;;10.00;5.93;;;;;;;;;;5113790;27;20227;-65
2023/03/11 13:29:58;;;;;;;5.45;4.95;;;;;;;;;;5113730;28;20469;-65
2023/03/11 13:32:45;;;;;;;6.20;5.18;;;;;;;;;;5113991;28;20702;-65
2023/03/11 13:35:21;;;;;;;6.20;5.70;;;;;;;;;;5113986;28;20199;-65
2023/03/11 13:37:59;;;;;;;8.20;5.83;;;;;;;;;;5113903;28;20199;-65
2023/03/11 13:40:32;;;;;;;5.75;5.25;;;;;;;;;;5113647;28;20507;-65
2023/03/11 13:43:02;;;;;;;6.70;6.05;;;;;;;;;;5114037;28;20188;-66
2023/03/11 13:45:31;;;;;;;6.28;4.90;;;;;;;;;;5113554;28;20195;-66
2023/03/11 13:47:59;;;;;;;5.53;5.03;;;;;;;;;;5113671;28;20212;-66
2023/03/11 13:50:28;;;;;;;5.30;4.85;;;;;;;;;;5113873;28;20212;-65
2023/03/11 13:52:59;;;;;;;6.40;5.22;;;;;;;;;;5113429;28;20211;-66
2023/03/11 13:55:29;;;;;;;5.85;5.28;;;;;;;;;;5112564;28;20271;-66
2023/03/11 13:57:56;;;;;;;5.97;4.85;;;;;;;;;;5113862;28;20199;-66
2023/03/11 14:00:27;;;;;;;6.85;5.70;;;;;;;;;;5113220;28;20188;-65
2023/03/11 14:02:55;;;;;;;5.50;5.10;;;;;;;;;;5113436;28;20248;-64
2023/03/11 14:05:24;;;;;;;5.50;5.00;;;;;;;;;;5113383;28;20196;-65
2023/03/11 14:07:51;;;;;;;6.13;5.53;;;;;;;;;;5113206;28;20216;-65
2023/03/11 14:10:21;;;;;;;7.82;5.53;;;;;;;;;;5113578;28;20188;-65
2023/03/11 14:12:48;;;;;;;5.95;5.32;;;;;;;;;;5113511;28;20212;-65
2023/03/11 14:15:18;;;;;;;5.70;5.07;;;;;;;;;;5113299;28;20188;-65
2023/03/11 14:17:45;;;;;;;6.85;4.93;;;;;;;;;;5113031;28;20492;-65
2023/03/11 14:20:15;;;;;;;4.82;4.45;;;;;;;;;;5113488;28;20193;-64
2023/03/11 14:22:44;;;;;;;5.53;5.03;;;;;;;;;;5113640;28;20191;-64
2023/03/11 14:25:17;;;;;;;5.07;4.57;;;;;;;;;;5113245;28;20478;-64
2023/03/11 14:27:49;;;;;;;5.53;4.65;;;;;;;;;;5113014;28;20220;-64
2023/03/11 14:30:20;;;;;;;4.28;3.95;;;;;;;;;;5113287;28;20189;-67
2023/03/11 14:32:56;;;;;;;3.97;3.58;;;;;;;;;;5113379;28;20193;-64
2023/03/11 14:35:23;;;;;;;4.27;3.90;;;;;;;;;;5113130;28;20283;-65
2023/03/11 14:37:51;;;;;;;5.20;4.70;;;;;;;;;;5113062;28;20541;-65
2023/03/11 14:40:23;;;;;;;4.37;4.00;;;;;;;;;;5113052;28;20452;-65
2023/03/11 14:42:53;;;;;;;4.20;3.90;;;;;;;;;;5112921;28;20806;-65
2023/03/11 14:45:22;;;;;;;10.00;4.25;;;;;;;;;;5113301;28;20442;-65
2023/03/11 14:47:52;;;;;;;4.20;3.80;;;;;;;;;;5113111;28;20195;-65
2023/03/11 14:50:20;;;;;;;3.80;3.50;;;;;;;;;;5112973;28;20544;-65